sensor_id;sensor_type;location;lat;lon;timestamp;temperature;humidity
41256;DHT22;26989;45.524;10.938;2022-08-21T00:01:49;22.10;93.50
41256;DHT22;26989;45.524;10.938;2022-08-21T00:04:16;22.00;93.40
41256;DHT22;26989;45.524;10.938;2022-08-21T00:06:49;22.00;93.70
41256;DHT22;26989;45.524;10.938;2022-08-21T00:09:16;21.80;93.70
41256;DHT22;26989;45.524;10.938;2022-08-21T00:11:43;21.90;93.40
41256;DHT22;26989;45.524;10.938;2022-08-21T00:14:11;21.90;93.70
41256;DHT22;26989;45.524;10.938;2022-08-21T00:16:38;21.80;93.80
41256;DHT22;26989;45.524;10.938;2022-08-21T00:19:06;21.70;94.00
41256;DHT22;26989;45.524;10.938;2022-08-21T00:21:34;21.70;94.00
41256;DHT22;26989;45.524;10.938;2022-08-21T00:24:02;21.60;94.10
41256;DHT22;26989;45.524;10.938;2022-08-21T00:26:29;21.70;94.00
41256;DHT22;26989;45.524;10.938;2022-08-21T00:28:56;21.70;93.80
41256;DHT22;26989;45.524;10.938;2022-08-21T00:31:24;21.70;93.80
41256;DHT22;26989;45.524;10.938;2022-08-21T00:33:51;21.50;94.10
41256;DHT22;26989;45.524;10.938;2022-08-21T00:36:26;21.50;94.10
41256;DHT22;26989;45.524;10.938;2022-08-21T00:38:53;21.50;94.10
41256;DHT22;26989;45.524;10.938;2022-08-21T00:41:20;21.40;94.40
41256;DHT22;26989;45.524;10.938;2022-08-21T00:44:09;21.40;94.20
41256;DHT22;26989;45.524;10.938;2022-08-21T00:46:37;21.50;94.10
41256;DHT22;26989;45.524;10.938;2022-08-21T00:49:05;21.40;94.10
41256;DHT22;26989;45.524;10.938;2022-08-21T00:51:38;21.30;94.20
41256;DHT22;26989;45.524;10.938;2022-08-21T00:54:07;21.30;94.50
41256;DHT22;26989;45.524;10.938;2022-08-21T00:56:43;21.30;94.50
41256;DHT22;26989;45.524;10.938;2022-08-21T00:59:10;21.20;94.50
41256;DHT22;26989;45.524;10.938;2022-08-21T01:01:37;21.20;94.60
41256;DHT22;26989;45.524;10.938;2022-08-21T01:04:05;21.30;94.30
41256;DHT22;26989;45.524;10.938;2022-08-21T01:06:31;21.20;94.40
41256;DHT22;26989;45.524;10.938;2022-08-21T01:08:59;21.30;94.40
41256;DHT22;26989;45.524;10.938;2022-08-21T01:11:26;21.30;93.90
41256;DHT22;26989;45.524;10.938;2022-08-21T01:13:53;21.50;93.60
41256;DHT22;26989;45.524;10.938;2022-08-21T01:16:21;21.50;93.70
41256;DHT22;26989;45.524;10.938;2022-08-21T01:18:49;21.60;93.20
41256;DHT22;26989;45.524;10.938;2022-08-21T01:21:22;21.60;93.40
41256;DHT22;26989;45.524;10.938;2022-08-21T01:23:55;21.50;93.40
41256;DHT22;26989;45.524;10.938;2022-08-21T01:26:26;21.50;93.20
41256;DHT22;26989;45.524;10.938;2022-08-21T01:31:39;21.70;93.00
41256;DHT22;26989;45.524;10.938;2022-08-21T01:34:07;21.70;93.10
41256;DHT22;26989;45.524;10.938;2022-08-21T01:36:34;21.60;93.30
41256;DHT22;26989;45.524;10.938;2022-08-21T01:39:03;21.60;93.50
41256;DHT22;26989;45.524;10.938;2022-08-21T01:41:30;21.50;93.50
41256;DHT22;26989;45.524;10.938;2022-08-21T01:43:57;21.40;94.10
41256;DHT22;26989;45.524;10.938;2022-08-21T01:46:24;21.20;95.00
41256;DHT22;26989;45.524;10.938;2022-08-21T01:48:51;21.00;95.70
41256;DHT22;26989;45.524;10.938;2022-08-21T01:51:18;21.00;95.00
41256;DHT22;26989;45.524;10.938;2022-08-21T01:53:45;21.30;93.50
41256;DHT22;26989;45.524;10.938;2022-08-21T01:56:15;21.50;93.20
41256;DHT22;26989;45.524;10.938;2022-08-21T01:58:44;21.50;93.20
41256;DHT22;26989;45.524;10.938;2022-08-21T02:01:12;21.50;93.20
41256;DHT22;26989;45.524;10.938;2022-08-21T02:03:40;21.30;93.60
41256;DHT22;26989;45.524;10.938;2022-08-21T02:06:13;21.20;93.70
41256;DHT22;26989;45.524;10.938;2022-08-21T02:08:40;21.10;94.50
41256;DHT22;26989;45.524;10.938;2022-08-21T02:11:07;21.00;94.70
41256;DHT22;26989;45.524;10.938;2022-08-21T02:13:34;21.10;94.10
41256;DHT22;26989;45.524;10.938;2022-08-21T02:16:01;20.90;94.30
41256;DHT22;26989;45.524;10.938;2022-08-21T02:18:27;20.90;94.40
41256;DHT22;26989;45.524;10.938;2022-08-21T02:20:54;20.90;94.50
41256;DHT22;26989;45.524;10.938;2022-08-21T02:23:23;20.80;94.60
41256;DHT22;26989;45.524;10.938;2022-08-21T02:26:01;20.90;94.50
41256;DHT22;26989;45.524;10.938;2022-08-21T02:28:29;20.90;94.40
41256;DHT22;26989;45.524;10.938;2022-08-21T02:30:56;20.80;94.40
41256;DHT22;26989;45.524;10.938;2022-08-21T02:33:25;20.80;94.60
41256;DHT22;26989;45.524;10.938;2022-08-21T02:35:53;20.90;94.40
41256;DHT22;26989;45.524;10.938;2022-08-21T02:38:24;20.90;94.30
41256;DHT22;26989;45.524;10.938;2022-08-21T02:40:51;21.00;94.40
41256;DHT22;26989;45.524;10.938;2022-08-21T02:43:20;21.10;94.60
41256;DHT22;26989;45.524;10.938;2022-08-21T02:45:48;21.10;94.30
41256;DHT22;26989;45.524;10.938;2022-08-21T02:48:19;21.20;94.30
41256;DHT22;26989;45.524;10.938;2022-08-21T02:50:51;21.30;93.60
41256;DHT22;26989;45.524;10.938;2022-08-21T02:53:18;21.30;94.10
41256;DHT22;26989;45.524;10.938;2022-08-21T02:55:48;21.20;94.70
41256;DHT22;26989;45.524;10.938;2022-08-21T02:58:19;21.30;93.90
41256;DHT22;26989;45.524;10.938;2022-08-21T03:00:46;21.40;93.30
41256;DHT22;26989;45.524;10.938;2022-08-21T03:03:13;21.40;93.10
41256;DHT22;26989;45.524;10.938;2022-08-21T03:05:41;21.30;93.40
41256;DHT22;26989;45.524;10.938;2022-08-21T03:08:11;21.30;93.20
41256;DHT22;26989;45.524;10.938;2022-08-21T03:10:42;21.30;93.30
41256;DHT22;26989;45.524;10.938;2022-08-21T03:13:10;21.20;93.50
41256;DHT22;26989;45.524;10.938;2022-08-21T03:15:37;21.10;93.70
41256;DHT22;26989;45.524;10.938;2022-08-21T03:18:04;21.10;93.60
41256;DHT22;26989;45.524;10.938;2022-08-21T03:20:32;21.00;93.80
41256;DHT22;26989;45.524;10.938;2022-08-21T03:23:00;21.00;93.70
41256;DHT22;26989;45.524;10.938;2022-08-21T03:25:28;21.00;93.80
41256;DHT22;26989;45.524;10.938;2022-08-21T03:28:12;21.00;93.80
41256;DHT22;26989;45.524;10.938;2022-08-21T03:30:41;21.00;94.10
41256;DHT22;26989;45.524;10.938;2022-08-21T03:33:09;20.90;94.50
41256;DHT22;26989;45.524;10.938;2022-08-21T03:35:45;20.60;95.20
41256;DHT22;26989;45.524;10.938;2022-08-21T03:38:13;20.60;95.80
41256;DHT22;26989;45.524;10.938;2022-08-21T03:40:41;20.40;96.20
41256;DHT22;26989;45.524;10.938;2022-08-21T03:43:09;20.40;95.70
41256;DHT22;26989;45.524;10.938;2022-08-21T03:45:37;20.40;95.30
41256;DHT22;26989;45.524;10.938;2022-08-21T03:48:06;20.60;94.20
41256;DHT22;26989;45.524;10.938;2022-08-21T03:50:36;20.70;94.10
41256;DHT22;26989;45.524;10.938;2022-08-21T03:53:07;20.60;94.10
41256;DHT22;26989;45.524;10.938;2022-08-21T03:55:45;20.60;94.20
41256;DHT22;26989;45.524;10.938;2022-08-21T03:58:13;20.60;94.20
41256;DHT22;26989;45.524;10.938;2022-08-21T04:00:44;20.60;94.30
41256;DHT22;26989;45.524;10.938;2022-08-21T04:03:11;20.40;95.00
41256;DHT22;26989;45.524;10.938;2022-08-21T04:05:38;20.30;95.10
41256;DHT22;26989;45.524;10.938;2022-08-21T04:08:06;20.30;94.80
41256;DHT22;26989;45.524;10.938;2022-08-21T04:10:36;20.40;95.00
41256;DHT22;26989;45.524;10.938;2022-08-21T04:13:04;20.10;95.40
41256;DHT22;26989;45.524;10.938;2022-08-21T04:15:32;20.50;94.30
41256;DHT22;26989;45.524;10.938;2022-08-21T04:17:59;20.80;93.80
41256;DHT22;26989;45.524;10.938;2022-08-21T04:20:26;20.90;93.60
41256;DHT22;26989;45.524;10.938;2022-08-21T04:22:54;20.80;93.80
41256;DHT22;26989;45.524;10.938;2022-08-21T04:25:23;20.70;94.10
41256;DHT22;26989;45.524;10.938;2022-08-21T04:27:50;20.70;94.10
41256;DHT22;26989;45.524;10.938;2022-08-21T04:30:17;20.80;94.00
41256;DHT22;26989;45.524;10.938;2022-08-21T04:32:46;20.90;93.70
41256;DHT22;26989;45.524;10.938;2022-08-21T04:35:18;20.90;93.60
41256;DHT22;26989;45.524;10.938;2022-08-21T04:37:45;20.90;93.70
41256;DHT22;26989;45.524;10.938;2022-08-21T04:40:16;20.70;94.20
41256;DHT22;26989;45.524;10.938;2022-08-21T04:42:51;20.70;94.20
41256;DHT22;26989;45.524;10.938;2022-08-21T04:45:22;20.70;94.20
41256;DHT22;26989;45.524;10.938;2022-08-21T04:47:52;20.80;94.20
41256;DHT22;26989;45.524;10.938;2022-08-21T04:50:22;20.90;93.80
41256;DHT22;26989;45.524;10.938;2022-08-21T04:52:50;21.10;93.40
41256;DHT22;26989;45.524;10.938;2022-08-21T04:55:18;21.10;93.50
41256;DHT22;26989;45.524;10.938;2022-08-21T04:57:45;21.10;93.50
41256;DHT22;26989;45.524;10.938;2022-08-21T05:00:16;21.00;94.10
41256;DHT22;26989;45.524;10.938;2022-08-21T05:02:46;20.80;94.60
41256;DHT22;26989;45.524;10.938;2022-08-21T05:05:16;20.70;94.30
41256;DHT22;26989;45.524;10.938;2022-08-21T05:07:44;20.70;94.50
41256;DHT22;26989;45.524;10.938;2022-08-21T05:10:13;20.80;94.20
41256;DHT22;26989;45.524;10.938;2022-08-21T05:12:41;20.70;94.90
41256;DHT22;26989;45.524;10.938;2022-08-21T05:15:11;20.90;94.40
41256;DHT22;26989;45.524;10.938;2022-08-21T05:17:41;21.40;93.50
41256;DHT22;26989;45.524;10.938;2022-08-21T05:20:09;22.00;92.50
41256;DHT22;26989;45.524;10.938;2022-08-21T05:22:37;22.50;92.70
41256;DHT22;26989;45.524;10.938;2022-08-21T05:25:05;22.60;92.40
41256;DHT22;26989;45.524;10.938;2022-08-21T05:27:37;22.50;93.00
41256;DHT22;26989;45.524;10.938;2022-08-21T05:30:06;22.90;92.50
41256;DHT22;26989;45.524;10.938;2022-08-21T05:32:35;23.70;91.40
41256;DHT22;26989;45.524;10.938;2022-08-21T05:35:06;24.30;90.30
41256;DHT22;26989;45.524;10.938;2022-08-21T05:37:34;25.20;89.80
41256;DHT22;26989;45.524;10.938;2022-08-21T05:40:02;25.40;89.60
41256;DHT22;26989;45.524;10.938;2022-08-21T05:42:46;25.00;90.80
41256;DHT22;26989;45.524;10.938;2022-08-21T05:45:23;24.30;91.90
41256;DHT22;26989;45.524;10.938;2022-08-21T05:48:12;24.70;90.80
41256;DHT22;26989;45.524;10.938;2022-08-21T05:50:40;25.60;90.30
41256;DHT22;26989;45.524;10.938;2022-08-21T05:53:08;26.60;88.80
41256;DHT22;26989;45.524;10.938;2022-08-21T05:55:37;27.10;88.80
41256;DHT22;26989;45.524;10.938;2022-08-21T05:58:11;27.00;88.70
41256;DHT22;26989;45.524;10.938;2022-08-21T06:00:38;24.70;91.40
41256;DHT22;26989;45.524;10.938;2022-08-21T06:03:11;23.80;92.40
41256;DHT22;26989;45.524;10.938;2022-08-21T06:05:38;23.50;92.50
41256;DHT22;26989;45.524;10.938;2022-08-21T06:08:05;25.60;90.90
41256;DHT22;26989;45.524;10.938;2022-08-21T06:10:32;27.40;90.10
41256;DHT22;26989;45.524;10.938;2022-08-21T06:12:59;27.70;89.00
41256;DHT22;26989;45.524;10.938;2022-08-21T06:15:26;28.60;87.00
41256;DHT22;26989;45.524;10.938;2022-08-21T06:17:54;28.80;86.30
41256;DHT22;26989;45.524;10.938;2022-08-21T06:20:22;28.70;83.50
41256;DHT22;26989;45.524;10.938;2022-08-21T06:22:49;29.50;85.20
41256;DHT22;26989;45.524;10.938;2022-08-21T06:25:16;30.20;84.20
41256;DHT22;26989;45.524;10.938;2022-08-21T06:27:43;30.80;84.60
41256;DHT22;26989;45.524;10.938;2022-08-21T06:30:10;30.90;83.90
41256;DHT22;26989;45.524;10.938;2022-08-21T06:32:38;33.10;83.30
41256;DHT22;26989;45.524;10.938;2022-08-21T06:35:05;32.80;81.80
41256;DHT22;26989;45.524;10.938;2022-08-21T06:37:32;33.00;82.50
41256;DHT22;26989;45.524;10.938;2022-08-21T06:40:00;33.90;79.70
41256;DHT22;26989;45.524;10.938;2022-08-21T06:42:26;32.00;80.50
41256;DHT22;26989;45.524;10.938;2022-08-21T06:44:57;31.90;79.50
41256;DHT22;26989;45.524;10.938;2022-08-21T06:47:24;34.60;78.10
41256;DHT22;26989;45.524;10.938;2022-08-21T06:49:51;35.90;72.80
41256;DHT22;26989;45.524;10.938;2022-08-21T06:52:18;34.50;73.40
41256;DHT22;26989;45.524;10.938;2022-08-21T06:54:45;30.60;85.10
41256;DHT22;26989;45.524;10.938;2022-08-21T06:57:12;29.20;89.10
41256;DHT22;26989;45.524;10.938;2022-08-21T06:59:39;28.00;91.20
41256;DHT22;26989;45.524;10.938;2022-08-21T07:02:06;27.20;92.50
41256;DHT22;26989;45.524;10.938;2022-08-21T07:04:34;26.90;93.90
41256;DHT22;26989;45.524;10.938;2022-08-21T07:07:01;26.70;93.00
41256;DHT22;26989;45.524;10.938;2022-08-21T07:09:27;26.70;93.20
41256;DHT22;26989;45.524;10.938;2022-08-21T07:11:55;26.90;92.30
41256;DHT22;26989;45.524;10.938;2022-08-21T07:14:22;27.00;89.70
41256;DHT22;26989;45.524;10.938;2022-08-21T07:16:49;27.10;89.10
41256;DHT22;26989;45.524;10.938;2022-08-21T07:19:17;27.00;88.70
41256;DHT22;26989;45.524;10.938;2022-08-21T07:21:44;27.00;88.10
41256;DHT22;26989;45.524;10.938;2022-08-21T07:24:12;27.00;88.90
41256;DHT22;26989;45.524;10.938;2022-08-21T07:26:38;26.90;89.60
41256;DHT22;26989;45.524;10.938;2022-08-21T07:29:05;27.00;89.50
41256;DHT22;26989;45.524;10.938;2022-08-21T07:31:33;27.00;89.90
41256;DHT22;26989;45.524;10.938;2022-08-21T07:33:59;27.10;90.90
41256;DHT22;26989;45.524;10.938;2022-08-21T07:36:26;27.10;90.30
41256;DHT22;26989;45.524;10.938;2022-08-21T07:38:53;27.10;90.40
41256;DHT22;26989;45.524;10.938;2022-08-21T07:41:24;27.10;90.20
41256;DHT22;26989;45.524;10.938;2022-08-21T07:43:52;27.10;90.30
41256;DHT22;26989;45.524;10.938;2022-08-21T07:46:19;27.10;90.00
41256;DHT22;26989;45.524;10.938;2022-08-21T07:48:46;27.10;88.30
41256;DHT22;26989;45.524;10.938;2022-08-21T07:51:15;27.10;90.20
41256;DHT22;26989;45.524;10.938;2022-08-21T07:53:48;27.10;89.00
41256;DHT22;26989;45.524;10.938;2022-08-21T07:56:16;27.00;89.60
41256;DHT22;26989;45.524;10.938;2022-08-21T07:58:42;27.10;89.30
41256;DHT22;26989;45.524;10.938;2022-08-21T08:01:09;27.10;89.90
41256;DHT22;26989;45.524;10.938;2022-08-21T08:03:37;27.00;89.00
41256;DHT22;26989;45.524;10.938;2022-08-21T08:06:06;27.00;90.20
41256;DHT22;26989;45.524;10.938;2022-08-21T08:08:35;27.10;90.00
41256;DHT22;26989;45.524;10.938;2022-08-21T08:11:01;27.10;89.30
41256;DHT22;26989;45.524;10.938;2022-08-21T08:13:28;27.20;89.30
41256;DHT22;26989;45.524;10.938;2022-08-21T08:15:55;27.20;89.40
41256;DHT22;26989;45.524;10.938;2022-08-21T08:18:22;27.10;89.10
41256;DHT22;26989;45.524;10.938;2022-08-21T08:20:49;27.20;89.40
41256;DHT22;26989;45.524;10.938;2022-08-21T08:23:16;27.20;90.20
41256;DHT22;26989;45.524;10.938;2022-08-21T08:25:43;27.10;90.50
41256;DHT22;26989;45.524;10.938;2022-08-21T08:28:10;27.10;90.10
41256;DHT22;26989;45.524;10.938;2022-08-21T08:30:44;27.10;90.60
41256;DHT22;26989;45.524;10.938;2022-08-21T08:33:11;27.10;90.90
41256;DHT22;26989;45.524;10.938;2022-08-21T08:35:38;27.00;90.10
41256;DHT22;26989;45.524;10.938;2022-08-21T08:38:07;27.00;90.90
41256;DHT22;26989;45.524;10.938;2022-08-21T08:43:32;27.20;91.40
41256;DHT22;26989;45.524;10.938;2022-08-21T08:46:02;27.20;91.10
41256;DHT22;26989;45.524;10.938;2022-08-21T08:49:05;27.20;91.00
41256;DHT22;26989;45.524;10.938;2022-08-21T08:54:45;27.30;90.70
41256;DHT22;26989;45.524;10.938;2022-08-21T08:57:22;27.30;90.90
41256;DHT22;26989;45.524;10.938;2022-08-21T08:59:55;27.40;90.50
41256;DHT22;26989;45.524;10.938;2022-08-21T09:02:22;27.30;90.40
41256;DHT22;26989;45.524;10.938;2022-08-21T09:04:52;27.40;90.90
41256;DHT22;26989;45.524;10.938;2022-08-21T09:10:19;27.30;90.00
41256;DHT22;26989;45.524;10.938;2022-08-21T09:21:49;27.20;90.90
41256;DHT22;26989;45.524;10.938;2022-08-21T09:24:31;27.10;91.10
41256;DHT22;26989;45.524;10.938;2022-08-21T09:27:08;27.40;90.20
41256;DHT22;26989;45.524;10.938;2022-08-21T09:29:39;27.20;90.10
41256;DHT22;26989;45.524;10.938;2022-08-21T09:32:21;27.20;90.40
41256;DHT22;26989;45.524;10.938;2022-08-21T09:37:44;27.40;91.30
41256;DHT22;26989;45.524;10.938;2022-08-21T09:40:35;27.40;91.40
41256;DHT22;26989;45.524;10.938;2022-08-21T09:43:10;27.70;91.20
41256;DHT22;26989;45.524;10.938;2022-08-21T09:45:42;27.70;90.60
41256;DHT22;26989;45.524;10.938;2022-08-21T09:50:41;27.60;90.10
41256;DHT22;26989;45.524;10.938;2022-08-21T09:53:27;27.70;89.50
41256;DHT22;26989;45.524;10.938;2022-08-21T09:56:20;27.70;90.60
41256;DHT22;26989;45.524;10.938;2022-08-21T09:59:28;27.80;89.80
41256;DHT22;26989;45.524;10.938;2022-08-21T10:02:27;27.70;90.00
41256;DHT22;26989;45.524;10.938;2022-08-21T10:05:18;27.80;90.10
41256;DHT22;26989;45.524;10.938;2022-08-21T10:07:45;28.00;90.70
41256;DHT22;26989;45.524;10.938;2022-08-21T10:10:22;28.00;90.40
41256;DHT22;26989;45.524;10.938;2022-08-21T10:13:41;27.90;90.50
41256;DHT22;26989;45.524;10.938;2022-08-21T10:21:30;28.00;87.50
41256;DHT22;26989;45.524;10.938;2022-08-21T10:24:10;28.00;87.90
41256;DHT22;26989;45.524;10.938;2022-08-21T10:27:22;28.00;88.70
41256;DHT22;26989;45.524;10.938;2022-08-21T10:35:24;28.20;86.40
41256;DHT22;26989;45.524;10.938;2022-08-21T10:46:54;28.40;86.00
41256;DHT22;26989;45.524;10.938;2022-08-21T10:55:16;28.40;88.90
41256;DHT22;26989;45.524;10.938;2022-08-21T10:58:09;28.40;89.50
41256;DHT22;26989;45.524;10.938;2022-08-21T11:00:45;28.40;89.50
41256;DHT22;26989;45.524;10.938;2022-08-21T11:03:35;28.50;90.00
41256;DHT22;26989;45.524;10.938;2022-08-21T11:06:15;28.70;89.60
41256;DHT22;26989;45.524;10.938;2022-08-21T11:08:45;28.80;90.10
41256;DHT22;26989;45.524;10.938;2022-08-21T11:11:36;28.50;89.40
41256;DHT22;26989;45.524;10.938;2022-08-21T11:16:51;28.80;86.90
41256;DHT22;26989;45.524;10.938;2022-08-21T11:19:31;28.70;85.80
41256;DHT22;26989;45.524;10.938;2022-08-21T11:25:03;28.50;86.90
41256;DHT22;26989;45.524;10.938;2022-08-21T11:27:41;28.70;88.10
41256;DHT22;26989;45.524;10.938;2022-08-21T11:30:09;28.70;87.80
41256;DHT22;26989;45.524;10.938;2022-08-21T11:33:02;28.70;85.80
41256;DHT22;26989;45.524;10.938;2022-08-21T11:35:58;28.60;86.30
41256;DHT22;26989;45.524;10.938;2022-08-21T11:38:39;28.50;87.70
41256;DHT22;26989;45.524;10.938;2022-08-21T11:44:02;28.70;87.30
41256;DHT22;26989;45.524;10.938;2022-08-21T11:46:46;28.60;86.20
41256;DHT22;26989;45.524;10.938;2022-08-21T11:49:49;28.70;86.00
41256;DHT22;26989;45.524;10.938;2022-08-21T11:52:26;28.60;86.10
41256;DHT22;26989;45.524;10.938;2022-08-21T11:57:40;28.80;86.60
41256;DHT22;26989;45.524;10.938;2022-08-21T12:00:13;29.10;86.70
41256;DHT22;26989;45.524;10.938;2022-08-21T12:02:48;29.00;85.70
41256;DHT22;26989;45.524;10.938;2022-08-21T12:05:35;29.00;85.70
41256;DHT22;26989;45.524;10.938;2022-08-21T12:10:39;29.20;86.30
41256;DHT22;26989;45.524;10.938;2022-08-21T12:13:22;29.30;84.70
41256;DHT22;26989;45.524;10.938;2022-08-21T12:16:07;29.10;84.10
41256;DHT22;26989;45.524;10.938;2022-08-21T12:18:34;29.00;84.50
41256;DHT22;26989;45.524;10.938;2022-08-21T12:23:49;29.10;84.60
41256;DHT22;26989;45.524;10.938;2022-08-21T12:26:47;29.20;85.30
41256;DHT22;26989;45.524;10.938;2022-08-21T12:32:04;29.70;84.50
41256;DHT22;26989;45.524;10.938;2022-08-21T12:34:42;29.60;83.90
41256;DHT22;26989;45.524;10.938;2022-08-21T12:37:34;29.80;84.20
41256;DHT22;26989;45.524;10.938;2022-08-21T12:40:21;29.80;83.40
41256;DHT22;26989;45.524;10.938;2022-08-21T12:42:53;29.90;84.00
41256;DHT22;26989;45.524;10.938;2022-08-21T12:45:42;29.70;84.30
41256;DHT22;26989;45.524;10.938;2022-08-21T12:48:29;29.50;83.50
41256;DHT22;26989;45.524;10.938;2022-08-21T12:51:11;29.60;83.10
41256;DHT22;26989;45.524;10.938;2022-08-21T12:53:56;29.60;83.60
41256;DHT22;26989;45.524;10.938;2022-08-21T12:56:29;29.80;84.60
41256;DHT22;26989;45.524;10.938;2022-08-21T12:59:02;29.80;82.80
41256;DHT22;26989;45.524;10.938;2022-08-21T13:01:39;29.70;83.50
41256;DHT22;26989;45.524;10.938;2022-08-21T13:04:12;29.90;83.00
41256;DHT22;26989;45.524;10.938;2022-08-21T13:06:48;29.80;82.50
41256;DHT22;26989;45.524;10.938;2022-08-21T13:09:18;29.70;82.50
41256;DHT22;26989;45.524;10.938;2022-08-21T13:11:47;29.90;82.80
41256;DHT22;26989;45.524;10.938;2022-08-21T13:14:35;29.90;83.10
41256;DHT22;26989;45.524;10.938;2022-08-21T13:17:11;30.10;81.50
41256;DHT22;26989;45.524;10.938;2022-08-21T13:19:57;30.20;82.70
41256;DHT22;26989;45.524;10.938;2022-08-21T13:22:25;30.60;80.40
41256;DHT22;26989;45.524;10.938;2022-08-21T13:25:01;30.70;80.00
41256;DHT22;26989;45.524;10.938;2022-08-21T13:27:32;30.70;80.60
41256;DHT22;26989;45.524;10.938;2022-08-21T13:30:19;30.60;80.70
41256;DHT22;26989;45.524;10.938;2022-08-21T13:32:54;30.60;82.00
41256;DHT22;26989;45.524;10.938;2022-08-21T13:35:30;30.60;81.60
41256;DHT22;26989;45.524;10.938;2022-08-21T13:37:58;30.80;80.70
41256;DHT22;26989;45.524;10.938;2022-08-21T13:40:32;30.80;80.60
41256;DHT22;26989;45.524;10.938;2022-08-21T13:43:12;30.80;80.50
41256;DHT22;26989;45.524;10.938;2022-08-21T13:45:51;31.00;80.80
41256;DHT22;26989;45.524;10.938;2022-08-21T13:48:20;31.00;80.30
41256;DHT22;26989;45.524;10.938;2022-08-21T13:50:47;30.90;79.50
41256;DHT22;26989;45.524;10.938;2022-08-21T13:53:34;31.00;81.20
41256;DHT22;26989;45.524;10.938;2022-08-21T13:56:02;31.10;80.80
41256;DHT22;26989;45.524;10.938;2022-08-21T13:58:34;31.20;79.20
41256;DHT22;26989;45.524;10.938;2022-08-21T14:01:25;31.30;80.60
41256;DHT22;26989;45.524;10.938;2022-08-21T14:04:06;31.20;80.10
41256;DHT22;26989;45.524;10.938;2022-08-21T14:06:36;31.10;80.90
41256;DHT22;26989;45.524;10.938;2022-08-21T14:11:36;30.90;80.50
41256;DHT22;26989;45.524;10.938;2022-08-21T14:14:19;30.80;80.90
41256;DHT22;26989;45.524;10.938;2022-08-21T14:19:45;31.10;81.60
41256;DHT22;26989;45.524;10.938;2022-08-21T14:22:27;31.10;81.00
41256;DHT22;26989;45.524;10.938;2022-08-21T14:25:10;31.20;81.10
41256;DHT22;26989;45.524;10.938;2022-08-21T14:27:44;31.50;79.90
41256;DHT22;26989;45.524;10.938;2022-08-21T14:30:22;31.60;79.00
41256;DHT22;26989;45.524;10.938;2022-08-21T14:32:53;31.70;80.50
41256;DHT22;26989;45.524;10.938;2022-08-21T14:35:20;31.70;79.80
41256;DHT22;26989;45.524;10.938;2022-08-21T14:37:50;31.70;81.10
41256;DHT22;26989;45.524;10.938;2022-08-21T14:40:20;31.80;80.50
41256;DHT22;26989;45.524;10.938;2022-08-21T14:42:47;32.00;80.40
41256;DHT22;26989;45.524;10.938;2022-08-21T14:45:19;32.30;78.50
41256;DHT22;26989;45.524;10.938;2022-08-21T14:47:53;32.40;78.90
41256;DHT22;26989;45.524;10.938;2022-08-21T14:50:20;32.40;79.00
41256;DHT22;26989;45.524;10.938;2022-08-21T14:52:48;32.40;79.10
41256;DHT22;26989;45.524;10.938;2022-08-21T14:55:16;32.40;78.20
41256;DHT22;26989;45.524;10.938;2022-08-21T14:57:49;32.40;79.20
41256;DHT22;26989;45.524;10.938;2022-08-21T15:00:20;32.40;78.80
41256;DHT22;26989;45.524;10.938;2022-08-21T15:02:52;32.30;78.00
41256;DHT22;26989;45.524;10.938;2022-08-21T15:05:19;32.30;78.90
41256;DHT22;26989;45.524;10.938;2022-08-21T15:07:58;32.20;79.00
41256;DHT22;26989;45.524;10.938;2022-08-21T15:10:25;32.00;78.30
41256;DHT22;26989;45.524;10.938;2022-08-21T15:12:52;32.00;77.40
41256;DHT22;26989;45.524;10.938;2022-08-21T15:15:19;31.80;78.50
41256;DHT22;26989;45.524;10.938;2022-08-21T15:17:46;31.90;80.00
41256;DHT22;26989;45.524;10.938;2022-08-21T15:20:14;31.80;80.50
41256;DHT22;26989;45.524;10.938;2022-08-21T15:22:41;32.00;80.40
41256;DHT22;26989;45.524;10.938;2022-08-21T15:25:13;32.10;79.40
41256;DHT22;26989;45.524;10.938;2022-08-21T15:27:40;32.20;78.30
41256;DHT22;26989;45.524;10.938;2022-08-21T15:30:08;32.20;79.10
41256;DHT22;26989;45.524;10.938;2022-08-21T15:32:35;32.00;78.70
41256;DHT22;26989;45.524;10.938;2022-08-21T15:35:02;31.80;78.60
41256;DHT22;26989;45.524;10.938;2022-08-21T15:37:29;31.70;79.80
41256;DHT22;26989;45.524;10.938;2022-08-21T15:39:56;31.80;81.40
41256;DHT22;26989;45.524;10.938;2022-08-21T15:42:24;31.80;79.60
41256;DHT22;26989;45.524;10.938;2022-08-21T15:44:54;31.80;79.90
41256;DHT22;26989;45.524;10.938;2022-08-21T15:47:27;31.80;81.00
41256;DHT22;26989;45.524;10.938;2022-08-21T15:49:55;31.70;79.40
41256;DHT22;26989;45.524;10.938;2022-08-21T15:52:23;31.70;79.60
41256;DHT22;26989;45.524;10.938;2022-08-21T15:54:51;31.70;79.40
41256;DHT22;26989;45.524;10.938;2022-08-21T15:57:21;31.80;78.30
41256;DHT22;26989;45.524;10.938;2022-08-21T15:59:51;31.70;79.50
41256;DHT22;26989;45.524;10.938;2022-08-21T16:02:23;31.70;80.20
41256;DHT22;26989;45.524;10.938;2022-08-21T16:04:51;31.70;80.40
41256;DHT22;26989;45.524;10.938;2022-08-21T16:07:18;31.70;80.10
41256;DHT22;26989;45.524;10.938;2022-08-21T16:09:45;31.70;81.00
41256;DHT22;26989;45.524;10.938;2022-08-21T16:12:17;31.70;81.20
41256;DHT22;26989;45.524;10.938;2022-08-21T16:14:46;31.70;81.60
41256;DHT22;26989;45.524;10.938;2022-08-21T16:17:13;31.70;80.90
41256;DHT22;26989;45.524;10.938;2022-08-21T16:19:39;31.70;79.80
41256;DHT22;26989;45.524;10.938;2022-08-21T16:22:06;31.60;80.90
41256;DHT22;26989;45.524;10.938;2022-08-21T16:24:33;31.70;80.70
41256;DHT22;26989;45.524;10.938;2022-08-21T16:27:02;31.70;80.00
41256;DHT22;26989;45.524;10.938;2022-08-21T16:29:35;31.50;81.80
41256;DHT22;26989;45.524;10.938;2022-08-21T16:32:04;31.50;82.00
41256;DHT22;26989;45.524;10.938;2022-08-21T16:34:31;31.50;81.30
41256;DHT22;26989;45.524;10.938;2022-08-21T16:36:58;31.50;80.30
41256;DHT22;26989;45.524;10.938;2022-08-21T16:39:25;31.50;80.50
41256;DHT22;26989;45.524;10.938;2022-08-21T16:41:53;31.40;81.70
41256;DHT22;26989;45.524;10.938;2022-08-21T16:44:21;31.40;80.30
41256;DHT22;26989;45.524;10.938;2022-08-21T16:46:48;31.30;81.20
41256;DHT22;26989;45.524;10.938;2022-08-21T16:49:16;31.20;81.00
41256;DHT22;26989;45.524;10.938;2022-08-21T16:51:42;31.20;81.70
41256;DHT22;26989;45.524;10.938;2022-08-21T16:54:10;31.20;82.60
41256;DHT22;26989;45.524;10.938;2022-08-21T16:56:38;31.10;82.30
41256;DHT22;26989;45.524;10.938;2022-08-21T16:59:08;31.10;82.50